Dunbar, United Kingdom
Current Conditions -  °F | °C
As of 6:50 PM on Thursday 27 Nov 2014 (Local Time) from EGQL Reporting Station
Broken Clouds Broken Clouds  
Wind Chill: 50°   Ceiling: 1400
Heat Index: 50°   Visibility: 6mi
Dew Point: 50°   Wind: 10mph
Humidity: 100%   Direction: 120°ESE
Pressure: 29.59"   Gusts: NA
Location:  56°N, 2.51°W
Report Text: EGQL 271850Z 12009KT 9999 FEW004 BKN014 BKN070 10/10 Q1002 /
Loading
Personal Weather Stations






























Interactive Weather Map New forecast layout! Learn more

10-Day Weather Forecast

Advertisements
Track Severe Weather on mobile